馬公航空站 - ATIS

METAR RCQC 200300Z 01025G35KT 9999 FEW010 BKN018 26/19 Q1006 NOSIG RMK A2973=

站台狀態:Online
最後更新:2019-09-20 11:00:02